Xin Dan Dong — BPBY — position and weather

sailwx.info

Track history (hours):
 
Tides and Currents Weather Stations Pressure Air Temp Water Temp Dewpoint Dewpoint Depression Visibility Wind Speed Wind Dir Waves Ship Positions

Xin Dan Dong

Last reported at 2017-Aug-14 04:30 UTC. Time now 2017-Aug-16 21:42 UTC.
Position N 23°49' E 118°09'.

Length 263 m; draft 11.3 m.

Type: Cargo ship. MMSI: 413153000.

Date/timePositionNaut miles runAvg speedWind from/ knotsBaromVisibWave heightAir tempDewpointWater temp
2017-Aug-14 04:30N 23°49' E 118°09'811.3
2017-Aug-14 03:49N 23°55' E 118°15'511.3
2017-Aug-14 03:23N 23°59' E 118°18'512.0
2017-Aug-14 02:59N 24°03' E 118°18'612.1
2017-Aug-14 02:30N 24°09' E 118°18'612.3
2017-Aug-14 02:00N 24°15' E 118°18'713.5
2017-Aug-14 01:30N 24°19' E 118°11'612.6
2017-Aug-14 01:01N 24°24' E 118°07'5 9.5
2017-Aug-14 00:31N 24°26' E 118°02'0 0.4
2017-Aug-13 23:59N 24°26' E 118°02'0 0.0
2017-Aug-13 23:30N 24°26' E 118°02'0 0.0
2017-Aug-13 23:00N 24°26' E 118°02'0 0.0
2017-Aug-13 22:29N 24°26' E 118°02'0 0.0
2017-Aug-13 21:59N 24°26' E 118°02'0 0.0
2017-Aug-13 21:30N 24°26' E 118°02'0 0.0
2017-Aug-13 21:00N 24°26' E 118°02'0 0.0
2017-Aug-13 20:30N 24°26' E 118°02'0 0.0
2017-Aug-13 20:00N 24°26' E 118°02'0 0.0
2017-Aug-13 19:30N 24°26' E 118°02'0 0.0
2017-Aug-13 19:00N 24°26' E 118°02'0 0.0
2017-Aug-13 18:30N 24°26' E 118°02'0 0.0
2017-Aug-13 17:59N 24°26' E 118°02'0 0.0
2017-Aug-13 17:29N 24°26' E 118°02'0 0.0
2017-Aug-13 16:59N 24°26' E 118°02'0 0.0
2017-Aug-13 16:29N 24°26' E 118°02'0 0.0
2017-Aug-13 15:59N 24°26' E 118°02'0 0.0
2017-Aug-13 15:29N 24°26' E 118°02'0 0.0
2017-Aug-13 14:59N 24°26' E 118°02'0 0.0
2017-Aug-13 14:29N 24°26' E 118°02'0 0.0
2017-Aug-13 13:59N 24°26' E 118°02'0 0.0
2017-Aug-13 13:29N 24°26' E 118°02'0 0.0
2017-Aug-13 12:59N 24°26' E 118°02'0 0.0
2017-Aug-13 12:29N 24°26' E 118°02'0 0.0
2017-Aug-13 11:59N 24°26' E 118°02'0 0.0
2017-Aug-13 11:29N 24°26' E 118°02'0 0.0
2017-Aug-13 10:59N 24°26' E 118°02'0 0.2
2017-Aug-13 10:31N 24°26' E 118°02'4 7.5
2017-Aug-13 10:00N 24°24' E 118°06'4 8.8
2017-Aug-13 09:31N 24°21' E 118°09'4 7.5
2017-Aug-13 09:01N 24°18' E 118°12'510.4
2017-Aug-13 08:31N 24°15' E 118°16'7 9.5
2017-Aug-13 07:46N 24°14' E 118°24'1 3.0
2017-Aug-13 07:30N 24°14' E 118°25'5 8.7
2017-Aug-13 06:57N 24°16' E 118°29'1111.9
2017-Aug-13 05:59N 24°23' E 118°40'3511.2
2017-Aug-13 02:55N 24°42' E 119°11'30511.6
2017-Aug-12 00:41N 28°51' E 122°29'7812.9
2017-Aug-11 18:35N 29°58' E 123°15'3011.9
2017-Aug-11 16:05N 30°28' E 123°12'311.4
2017-Aug-11 15:50N 30°31' E 123°12'411.4
2017-Aug-11 15:29N 30°35' E 123°11'1412.6
2017-Aug-11 14:20N 30°49' E 123°12'30811.7
2017-Aug-10 12:04N 35°11' E 119°59'112.9
2017-Aug-10 11:59N 35°11' E 119°58'713.2
2017-Aug-10 11:26N 35°14' E 119°49'613.0
2017-Aug-10 11:00N 35°16' E 119°43'611.3
2017-Aug-10 10:30N 35°19' E 119°37'5 9.7
2017-Aug-10 10:00N 35°22' E 119°32'0 0.0
2017-Aug-10 03:41N 35°22' E 119°32'0 0.0
2017-Aug-10 03:29N 35°22' E 119°32'0 0.0
2017-Aug-10 02:09N 35°22' E 119°32'0 0.0
2017-Aug-10 01:51N 35°22' E 119°32'0 0.0
2017-Aug-10 00:21N 35°22' E 119°32'0 0.0
2017-Aug-09 23:57N 35°22' E 119°32'0 0.0
2017-Aug-09 22:15N 35°22' E 119°32'0 0.0
2017-Aug-09 21:57N 35°22' E 119°32'0 0.0
2017-Aug-09 21:27N 35°22' E 119°32'0 0.0
2017-Aug-09 20:57N 35°22' E 119°32'0 0.0
2017-Aug-09 20:09N 35°22' E 119°32'0 0.0
2017-Aug-09 19:55N 35°22' E 119°32'0 0.4
2017-Aug-09 19:30N 35°22' E 119°32'4 8.6
2017-Aug-09 18:59N 35°19' E 119°37'4 8.5
2017-Aug-09 18:29N 35°18' E 119°42'2 3.7
2017-Aug-09 17:59N 35°17' E 119°44'2 2.8
2017-Aug-09 17:22N 35°19' E 119°45'0 0.0
2017-Aug-09 16:58N 35°19' E 119°45'0 0.1
2017-Aug-09 16:22N 35°19' E 119°45'0 0.1
2017-Aug-09 15:58N 35°19' E 119°45'0 0.1
2017-Aug-09 15:16N 35°19' E 119°45'0 0.0
2017-Aug-09 14:46N 35°19' E 119°45'0 0.0
2017-Aug-09 14:26N 35°19' E 119°45'0 0.1
2017-Aug-09 12:33N 35°18' E 119°45'0 0.0
2017-Aug-09 12:15N 35°18' E 119°45'0 0.2
2017-Aug-09 11:57N 35°18' E 119°45'0 0.4
2017-Aug-09 11:27N 35°19' E 119°45'0 0.1
2017-Aug-09 10:33N 35°19' E 119°45'0 0.0
2017-Aug-09 10:27N 35°19' E 119°45'0 0.0
2017-Aug-09 08:15N 35°19' E 119°45'0 0.1
2017-Aug-09 07:51N 35°19' E 119°45'0 0.0
2017-Aug-09 07:27N 35°19' E 119°45'0 0.1
2017-Aug-09 06:51N 35°19' E 119°45'0 0.1
2017-Aug-09 06:27N 35°19' E 119°45'0 0.0
2017-Aug-09 05:39N 35°19' E 119°45'0 0.0
2017-Aug-09 05:21N 35°19' E 119°45'0 0.1
2017-Aug-09 04:51N 35°19' E 119°45'0 0.0
2017-Aug-09 04:27N 35°19' E 119°45'0 0.0
2017-Aug-09 03:39N 35°19' E 119°45'0 0.0
2017-Aug-09 03:21N 35°19' E 119°45'0 0.1
2017-Aug-09 01:45N 35°18' E 119°45'0 0.3
2017-Aug-09 01:21N 35°18' E 119°45'0 0.0
2017-Aug-09 00:57N 35°18' E 119°45'0 0.1
2017-Aug-09 00:27N 35°18' E 119°45'0 0.0
2017-Aug-08 23:45N 35°18' E 119°45'0 0.0
2017-Aug-08 23:27N 35°18' E 119°45'0 0.0
2017-Aug-08 22:51N 35°18' E 119°45'0 0.0
2017-Aug-08 22:21N 35°18' E 119°45'0 0.0
2017-Aug-08 21:57N 35°18' E 119°45'0 0.0
2017-Aug-08 21:27N 35°18' E 119°45'0 0.0
2017-Aug-08 20:51N 35°18' E 119°45'0 0.0
2017-Aug-08 20:27N 35°18' E 119°45'0 0.0
2017-Aug-08 19:51N 35°18' E 119°45'0 0.2
2017-Aug-08 19:27N 35°18' E 119°45'0 0.2
2017-Aug-08 18:51N 35°19' E 119°45'0 0.1
2017-Aug-08 18:27N 35°19' E 119°45'0 0.0
2017-Aug-08 17:57N 35°19' E 119°45'0 0.1
2017-Aug-08 17:21N 35°19' E 119°45'0 0.0
2017-Aug-08 16:57N 35°19' E 119°45'0 0.1
2017-Aug-08 16:27N 35°19' E 119°45'0 0.0
2017-Aug-08 15:57N 35°19' E 119°45'0 0.0
2017-Aug-08 15:27N 35°19' E 119°45'0 0.0
2017-Aug-08 14:15N 35°19' E 119°45'0 0.0
2017-Aug-08 13:45N 35°19' E 119°45'0 0.0
2017-Aug-08 13:27N 35°19' E 119°45'0 0.1
2017-Aug-08 12:45N 35°19' E 119°45'0 0.0
2017-Aug-08 12:15N 35°18' E 119°45'0 0.2
2017-Aug-08 11:51N 35°18' E 119°45'0 0.1
2017-Aug-08 11:21N 35°18' E 119°45'0 0.1
2017-Aug-08 10:03N 35°18' E 119°45'0 0.1
2017-Aug-08 09:57N 35°18' E 119°45'0 0.1
2017-Aug-08 09:27N 35°18' E 119°45'0 0.0
2017-Aug-08 08:57N 35°18' E 119°45'0 0.0
2017-Aug-08 08:21N 35°18' E 119°45'0 0.1
2017-Aug-08 07:33N 35°18' E 119°45'0 0.1
2017-Aug-08 07:27N 35°18' E 119°45'0 0.1
2017-Aug-08 06:57N 35°19' E 119°45'0 0.2
2017-Aug-08 06:27N 35°19' E 119°45'0 0.5
2017-Aug-08 05:51N 35°19' E 119°45'3 7.8
2017-Aug-08 05:30N 35°18' E 119°48'712.0
2017-Aug-08 04:55N 35°16' E 119°56'512.7
2017-Aug-08 04:30N 35°16' E 120°03'  
2017-Aug-04 17:12N 32°14' E 123°13'314.5
2017-Aug-04 16:59N 32°11' E 123°12'814.7
2017-Aug-04 16:27N 32°04' E 123°13'714.5
2017-Aug-04 15:59N 31°57' E 123°13'914.1
2017-Aug-04 15:22N 31°48' E 123°13'913.9
2017-Aug-04 14:43N 31°39' E 123°12'1114.0
2017-Aug-04 13:57N 31°28' E 123°13'1514.4
2017-Aug-04 12:56N 31°14' E 123°14'614.1
2017-Aug-04 12:29N 31°07' E 123°14'6913.6
2017-Aug-04 07:22N 29°58' E 123°14'512.6
2017-Aug-04 06:57N 29°53' E 123°13'  
Track history (hours):
 
Tides and Currents Weather Stations Pressure Air Temp Water Temp Dewpoint Dewpoint Depression Visibility Wind Speed Wind Dir Waves Ship Positions

Xin Dan Dong

Last reported at 2017-Aug-14 04:30 UTC. Time now 2017-Aug-16 21:42 UTC.
Position N 23°49' E 118°09'.

Length 263 m; draft 11.3 m.

Type: Cargo ship. MMSI: 413153000.

Date/timePositionNaut miles runAvg speedWind from/ knotsBaromVisibWave heightAir tempDewpointWater temp
2017-Aug-14 04:30N 23°49' E 118°09'811.3
2017-Aug-14 03:49N 23°55' E 118°15'511.3
2017-Aug-14 03:23N 23°59' E 118°18'512.0
2017-Aug-14 02:59N 24°03' E 118°18'612.1
2017-Aug-14 02:30N 24°09' E 118°18'612.3
2017-Aug-14 02:00N 24°15' E 118°18'713.5
2017-Aug-14 01:30N 24°19' E 118°11'612.6
2017-Aug-14 01:01N 24°24' E 118°07'5 9.5
2017-Aug-14 00:31N 24°26' E 118°02'0 0.4
2017-Aug-13 23:59N 24°26' E 118°02'0 0.0
2017-Aug-13 23:30N 24°26' E 118°02'0 0.0
2017-Aug-13 23:00N 24°26' E 118°02'0 0.0
2017-Aug-13 22:29N 24°26' E 118°02'0 0.0
2017-Aug-13 21:59N 24°26' E 118°02'0 0.0
2017-Aug-13 21:30N 24°26' E 118°02'0 0.0
2017-Aug-13 21:00N 24°26' E 118°02'0 0.0
2017-Aug-13 20:30N 24°26' E 118°02'0 0.0
2017-Aug-13 20:00N 24°26' E 118°02'0 0.0
2017-Aug-13 19:30N 24°26' E 118°02'0 0.0
2017-Aug-13 19:00N 24°26' E 118°02'0 0.0
2017-Aug-13 18:30N 24°26' E 118°02'0 0.0
2017-Aug-13 17:59N 24°26' E 118°02'0 0.0
2017-Aug-13 17:29N 24°26' E 118°02'0 0.0
2017-Aug-13 16:59N 24°26' E 118°02'0 0.0
2017-Aug-13 16:29N 24°26' E 118°02'0 0.0
2017-Aug-13 15:59N 24°26' E 118°02'0 0.0
2017-Aug-13 15:29N 24°26' E 118°02'0 0.0
2017-Aug-13 14:59N 24°26' E 118°02'0 0.0
2017-Aug-13 14:29N 24°26' E 118°02'0 0.0
2017-Aug-13 13:59N 24°26' E 118°02'0 0.0
2017-Aug-13 13:29N 24°26' E 118°02'0 0.0
2017-Aug-13 12:59N 24°26' E 118°02'0 0.0
2017-Aug-13 12:29N 24°26' E 118°02'0 0.0
2017-Aug-13 11:59N 24°26' E 118°02'0 0.0
2017-Aug-13 11:29N 24°26' E 118°02'0 0.0
2017-Aug-13 10:59N 24°26' E 118°02'0 0.2
2017-Aug-13 10:31N 24°26' E 118°02'4 7.5
2017-Aug-13 10:00N 24°24' E 118°06'4 8.8
2017-Aug-13 09:31N 24°21' E 118°09'4 7.5
2017-Aug-13 09:01N 24°18' E 118°12'510.4
2017-Aug-13 08:31N 24°15' E 118°16'7 9.5
2017-Aug-13 07:46N 24°14' E 118°24'1 3.0
2017-Aug-13 07:30N 24°14' E 118°25'5 8.7
2017-Aug-13 06:57N 24°16' E 118°29'1111.9
2017-Aug-13 05:59N 24°23' E 118°40'3511.2
2017-Aug-13 02:55N 24°42' E 119°11'30511.6
2017-Aug-12 00:41N 28°51' E 122°29'7812.9
2017-Aug-11 18:35N 29°58' E 123°15'3011.9
2017-Aug-11 16:05N 30°28' E 123°12'311.4
2017-Aug-11 15:50N 30°31' E 123°12'411.4
2017-Aug-11 15:29N 30°35' E 123°11'1412.6
2017-Aug-11 14:20N 30°49' E 123°12'30811.7
2017-Aug-10 12:04N 35°11' E 119°59'112.9
2017-Aug-10 11:59N 35°11' E 119°58'713.2
2017-Aug-10 11:26N 35°14' E 119°49'613.0
2017-Aug-10 11:00N 35°16' E 119°43'611.3
2017-Aug-10 10:30N 35°19' E 119°37'5 9.7
2017-Aug-10 10:00N 35°22' E 119°32'0 0.0
2017-Aug-10 03:41N 35°22' E 119°32'0 0.0
2017-Aug-10 03:29N 35°22' E 119°32'0 0.0
2017-Aug-10 02:09N 35°22' E 119°32'0 0.0
2017-Aug-10 01:51N 35°22' E 119°32'0 0.0
2017-Aug-10 00:21N 35°22' E 119°32'0 0.0
2017-Aug-09 23:57N 35°22' E 119°32'0 0.0
2017-Aug-09 22:15N 35°22' E 119°32'0 0.0
2017-Aug-09 21:57N 35°22' E 119°32'0 0.0
2017-Aug-09 21:27N 35°22' E 119°32'0 0.0
2017-Aug-09 20:57N 35°22' E 119°32'0 0.0
2017-Aug-09 20:09N 35°22' E 119°32'0 0.0
2017-Aug-09 19:55N 35°22' E 119°32'0 0.4
2017-Aug-09 19:30N 35°22' E 119°32'4 8.6
2017-Aug-09 18:59N 35°19' E 119°37'4 8.5
2017-Aug-09 18:29N 35°18' E 119°42'2 3.7
2017-Aug-09 17:59N 35°17' E 119°44'2 2.8
2017-Aug-09 17:22N 35°19' E 119°45'0 0.0
2017-Aug-09 16:58N 35°19' E 119°45'0 0.1
2017-Aug-09 16:22N 35°19' E 119°45'0 0.1
2017-Aug-09 15:58N 35°19' E 119°45'0 0.1
2017-Aug-09 15:16N 35°19' E 119°45'0 0.0
2017-Aug-09 14:46N 35°19' E 119°45'0 0.0
2017-Aug-09 14:26N 35°19' E 119°45'0 0.1
2017-Aug-09 12:33N 35°18' E 119°45'0 0.0
2017-Aug-09 12:15N 35°18' E 119°45'0 0.2
2017-Aug-09 11:57N 35°18' E 119°45'0 0.4
2017-Aug-09 11:27N 35°19' E 119°45'0 0.1
2017-Aug-09 10:33N 35°19' E 119°45'0 0.0
2017-Aug-09 10:27N 35°19' E 119°45'0 0.0
2017-Aug-09 08:15N 35°19' E 119°45'0 0.1
2017-Aug-09 07:51N 35°19' E 119°45'0 0.0
2017-Aug-09 07:27N 35°19' E 119°45'0 0.1
2017-Aug-09 06:51N 35°19' E 119°45'0 0.1
2017-Aug-09 06:27N 35°19' E 119°45'0 0.0
2017-Aug-09 05:39N 35°19' E 119°45'0 0.0
2017-Aug-09 05:21N 35°19' E 119°45'0 0.1
2017-Aug-09 04:51N 35°19' E 119°45'0 0.0
2017-Aug-09 04:27N 35°19' E 119°45'0 0.0
2017-Aug-09 03:39N 35°19' E 119°45'0 0.0
2017-Aug-09 03:21N 35°19' E 119°45'0 0.1
2017-Aug-09 01:45N 35°18' E 119°45'0 0.3
2017-Aug-09 01:21N 35°18' E 119°45'0 0.0
2017-Aug-09 00:57N 35°18' E 119°45'0 0.1
2017-Aug-09 00:27N 35°18' E 119°45'0 0.0
2017-Aug-08 23:45N 35°18' E 119°45'0 0.0
2017-Aug-08 23:27N 35°18' E 119°45'0 0.0
2017-Aug-08 22:51N 35°18' E 119°45'0 0.0
2017-Aug-08 22:21N 35°18' E 119°45'0 0.0
2017-Aug-08 21:57N 35°18' E 119°45'0 0.0
2017-Aug-08 21:27N 35°18' E 119°45'0 0.0
2017-Aug-08 20:51N 35°18' E 119°45'0 0.0
2017-Aug-08 20:27N 35°18' E 119°45'0 0.0
2017-Aug-08 19:51N 35°18' E 119°45'0 0.2
2017-Aug-08 19:27N 35°18' E 119°45'0 0.2
2017-Aug-08 18:51N 35°19' E 119°45'0 0.1
2017-Aug-08 18:27N 35°19' E 119°45'0 0.0
2017-Aug-08 17:57N 35°19' E 119°45'0 0.1
2017-Aug-08 17:21N 35°19' E 119°45'0 0.0
2017-Aug-08 16:57N 35°19' E 119°45'0 0.1
2017-Aug-08 16:27N 35°19' E 119°45'0 0.0
2017-Aug-08 15:57N 35°19' E 119°45'0 0.0
2017-Aug-08 15:27N 35°19' E 119°45'0 0.0
2017-Aug-08 14:15N 35°19' E 119°45'0 0.0
2017-Aug-08 13:45N 35°19' E 119°45'0 0.0
2017-Aug-08 13:27N 35°19' E 119°45'0 0.1
2017-Aug-08 12:45N 35°19' E 119°45'0 0.0
2017-Aug-08 12:15N 35°18' E 119°45'0 0.2
2017-Aug-08 11:51N 35°18' E 119°45'0 0.1
2017-Aug-08 11:21N 35°18' E 119°45'0 0.1
2017-Aug-08 10:03N 35°18' E 119°45'0 0.1
2017-Aug-08 09:57N 35°18' E 119°45'0 0.1
2017-Aug-08 09:27N 35°18' E 119°45'0 0.0
2017-Aug-08 08:57N 35°18' E 119°45'0 0.0
2017-Aug-08 08:21N 35°18' E 119°45'0 0.1
2017-Aug-08 07:33N 35°18' E 119°45'0 0.1
2017-Aug-08 07:27N 35°18' E 119°45'0 0.1
2017-Aug-08 06:57N 35°19' E 119°45'0 0.2
2017-Aug-08 06:27N 35°19' E 119°45'0 0.5
2017-Aug-08 05:51N 35°19' E 119°45'3 7.8
2017-Aug-08 05:30N 35°18' E 119°48'712.0
2017-Aug-08 04:55N 35°16' E 119°56'512.7
2017-Aug-08 04:30N 35°16' E 120°03'  
2017-Aug-04 17:12N 32°14' E 123°13'314.5
2017-Aug-04 16:59N 32°11' E 123°12'814.7
2017-Aug-04 16:27N 32°04' E 123°13'714.5
2017-Aug-04 15:59N 31°57' E 123°13'914.1
2017-Aug-04 15:22N 31°48' E 123°13'913.9
2017-Aug-04 14:43N 31°39' E 123°12'1114.0
2017-Aug-04 13:57N 31°28' E 123°13'1514.4
2017-Aug-04 12:56N 31°14' E 123°14'614.1
2017-Aug-04 12:29N 31°07' E 123°14'6913.6
2017-Aug-04 07:22N 29°58' E 123°14'512.6
2017-Aug-04 06:57N 29°53' E 123°13'  

Dump ship's entire track history